Time;durP1;ratioP1;P1;durP2;ratioP2;P2;SDS_P1;SDS_P2;PMS_P1;PMS_P2;Temp;Humidity;BMP_temperature;BMP_pressure;BME280_temperature;BME280_humidity;BME280_pressure;Samples;Min_cycle;Max_cycle;Signal;HPM_P1;HPM_P2
2023/10/16 00:09:22;;;;;;;11.75;6.93;;;;;;;19.31;100.00;100852.84;20969132;28;20136;-74
2023/10/16 00:19:45;;;;;;;11.73;7.25;;;;;;;19.29;100.00;100849.34;20970149;28;20056;-73
2023/10/16 00:30:10;;;;;;;15.23;7.40;;;;;;;19.38;100.00;100841.09;20975560;28;20076;-73
2023/10/16 00:40:33;;;;;;;13.23;7.07;;;;;;;19.33;100.00;100829.63;20974237;28;20063;-73
2023/10/16 00:50:58;;;;;;;14.90;6.90;;;;;;;19.24;100.00;100819.94;20967987;28;20442;-73
2023/10/16 01:01:22;;;;;;;15.70;7.05;;;;;;;19.13;100.00;100827.31;20953988;28;20091;-73
2023/10/16 01:11:46;;;;;;;13.18;5.88;;;;;;;19.26;100.00;100844.91;20957909;28;20047;-73
2023/10/16 01:22:11;;;;;;;12.07;6.47;;;;;;;19.19;100.00;100837.00;20934552;28;20049;-73
2023/10/16 01:32:35;;;;;;;10.80;6.82;;;;;;;19.02;100.00;100840.91;20968852;28;20056;-73
2023/10/16 01:42:58;;;;;;;13.50;6.47;;;;;;;19.05;100.00;100835.47;20953994;28;20051;-73
2023/10/16 01:53:25;;;;;;;12.18;6.05;;;;;;;19.07;100.00;100841.69;20954950;28;20489;-73
2023/10/16 02:03:50;;;;;;;13.07;6.95;;;;;;;18.99;100.00;100838.25;20951389;28;20515;-73
2023/10/16 02:14:14;;;;;;;14.60;7.60;;;;;;;18.86;100.00;100830.47;20949479;28;20048;-73
2023/10/16 02:24:40;;;;;;;12.38;6.57;;;;;;;18.87;100.00;100825.09;20968933;28;20094;-73
2023/10/16 02:35:13;;;;;;;12.73;6.97;;;;;;;18.81;100.00;100835.91;20950924;28;20059;-74
2023/10/16 02:45:35;;;;;;;13.20;6.68;;;;;;;18.68;100.00;100840.59;20935340;28;20048;-73
2023/10/16 02:56:05;;;;;;;12.88;7.03;;;;;;;18.71;100.00;100842.31;20967931;28;20061;-73
2023/10/16 03:06:27;;;;;;;12.40;7.78;;;;;;;18.69;100.00;100845.03;20953170;28;20419;-72
2023/10/16 03:16:57;;;;;;;11.23;6.25;;;;;;;18.62;100.00;100845.16;20960282;28;20046;-74
2023/10/16 03:27:28;;;;;;;12.82;6.93;;;;;;;18.49;100.00;100855.13;20966652;28;20374;-73
2023/10/16 03:37:54;;;;;;;14.23;6.65;;;;;;;18.39;100.00;100852.59;20979155;28;20592;-74
2023/10/16 03:48:17;;;;;;;12.98;6.40;;;;;;;18.10;100.00;100861.94;20972070;28;20040;-73
2023/10/16 03:58:43;;;;;;;10.20;5.72;;;;;;;18.12;100.00;100869.91;20973392;28;20041;-73
2023/10/16 04:09:09;;;;;;;12.07;6.22;;;;;;;18.21;100.00;100864.44;20980519;28;20048;-73
2023/10/16 04:19:36;;;;;;;11.98;6.35;;;;;;;18.29;100.00;100862.56;20971204;28;20052;-73
2023/10/16 04:51:27;;;;;;;10.48;5.90;;;;;;;17.86;100.00;100871.13;20962703;28;20052;-74
2023/10/16 05:02:10;;;;;;;12.40;5.72;;;;;;;18.05;100.00;100884.28;20968381;28;20052;-73
2023/10/16 06:16:38;;;;;;;9.65;3.35;;;;;;;23.47;100.00;100935.84;20953835;28;20048;-75
2023/10/16 06:27:08;;;;;;;10.88;3.83;;;;;;;24.05;100.00;100937.34;20942638;28;20058;-74
2023/10/16 06:37:32;;;;;;;10.80;3.90;;;;;;;24.65;100.00;100949.44;20944321;28;20043;-74
2023/10/16 06:47:58;;;;;;;12.02;4.45;;;;;;;25.19;100.00;100951.78;20953837;28;20049;-74
2023/10/16 06:58:21;;;;;;;9.23;3.67;;;;;;;25.73;97.15;100963.91;20948071;28;20052;-73
2023/10/16 07:08:45;;;;;;;11.60;3.17;;;;;;;26.39;90.39;100965.41;20947079;28;20048;-75
2023/10/16 07:19:13;;;;;;;8.23;2.63;;;;;;;27.09;78.87;100988.31;20956145;28;20064;-74
2023/10/16 07:29:38;;;;;;;7.88;2.90;;;;;;;27.58;63.58;100981.31;20959121;28;20055;-74
2023/10/16 07:40:00;;;;;;;10.57;2.60;;;;;;;28.02;61.73;100990.75;20947629;28;20666;-74
2023/10/16 07:50:27;;;;;;;10.25;2.88;;;;;;;28.33;54.22;100984.56;20964901;28;20388;-74
2023/10/16 08:00:59;;;;;;;11.50;3.25;;;;;;;28.62;52.46;100982.94;20957140;28;20048;-74
2023/10/16 08:11:23;;;;;;;9.68;3.13;;;;;;;28.84;50.10;100993.53;20895572;28;20063;-73
2023/10/16 08:21:46;;;;;;;11.82;2.72;;;;;;;29.12;49.41;101007.31;20951766;28;20106;-73
2023/10/16 08:43:00;;;;;;;9.20;2.97;;;;;;;29.63;48.01;101010.69;20974958;28;20553;-74
2023/10/16 08:53:34;;;;;;;7.93;2.75;;;;;;;29.42;48.29;101021.00;20963801;28;20084;-73
2023/10/16 09:04:05;;;;;;;10.00;2.80;;;;;;;29.88;46.93;101015.53;20941622;28;20060;-74
2023/10/16 09:14:29;;;;;;;11.52;3.50;;;;;;;30.46;46.39;101012.84;20963002;28;20068;-74
2023/10/16 09:24:53;;;;;;;8.70;3.05;;;;;;;30.38;45.72;100999.72;20941814;28;20048;-75
2023/10/16 09:35:30;;;;;;;10.35;3.72;;;;;;;30.30;45.80;100996.59;20961051;28;20151;-74
2023/10/16 09:56:38;;;;;;;9.98;3.38;;;;;;;30.66;46.37;100979.75;20953990;28;20039;-74
2023/10/16 10:07:03;;;;;;;12.63;3.78;;;;;;;30.73;46.70;100966.63;20957286;28;21705;-74
2023/10/16 10:17:28;;;;;;;;;;;;;;;30.45;47.18;100967.50;20941287;28;20060;-73
2023/10/16 10:27:51;;;;;;;11.35;3.30;;;;;;;30.97;46.54;100972.34;20920773;28;20352;-73
2023/10/16 10:38:24;;;;;;;8.80;3.30;;;;;;;30.66;48.77;100963.41;20925117;28;20056;-75
2023/10/16 10:48:47;;;;;;;14.15;4.80;;;;;;;29.90;52.39;100950.97;20910617;28;20105;-75
2023/10/16 10:59:11;;;;;;;10.57;3.97;;;;;;;29.76;53.46;100953.66;20902573;28;20115;-75
2023/10/16 11:09:37;;;;;;;12.10;4.85;;;;;;;30.04;52.10;100953.75;20913216;28;20390;-76
2023/10/16 11:20:15;;;;;;;11.13;4.43;;;;;;;30.10;53.55;100951.53;20902880;28;20454;-76
2023/10/16 11:30:39;;;;;;;8.38;3.85;;;;;;;29.69;53.39;100940.44;20943686;28;20048;-76
2023/10/16 11:41:12;;;;;;;7.95;4.00;;;;;;;29.21;54.63;100946.94;20932458;28;20049;-75
2023/10/16 11:51:36;;;;;;;11.52;4.53;;;;;;;29.06;58.91;100944.25;20968380;28;20519;-75
2023/10/16 12:02:10;;;;;;;13.80;4.93;;;;;;;28.45;68.75;100937.72;20916318;28;20488;-75
2023/10/16 12:12:33;;;;;;;10.25;4.60;;;;;;;28.17;71.98;100944.72;20943554;28;20052;-75
2023/10/16 12:22:57;;;;;;;8.77;4.63;;;;;;;27.98;78.07;100942.09;20981928;28;20051;-76
2023/10/16 12:33:20;;;;;;;11.95;5.53;;;;;;;27.99;81.64;100930.28;20976909;28;20060;-76
2023/10/16 12:43:46;;;;;;;13.40;6.03;;;;;;;27.62;90.10;100934.97;20928763;28;20097;-76
2023/10/16 12:54:12;;;;;;;11.73;5.15;;;;;;;27.61;89.66;100940.47;20975024;28;20055;-75
2023/10/16 13:04:37;;;;;;;13.30;5.63;;;;;;;27.73;90.35;100938.00;20907099;28;20051;-75
2023/10/16 13:15:00;;;;;;;11.32;5.32;;;;;;;27.48;94.83;100932.06;20907605;28;20049;-75
2023/10/16 13:25:25;;;;;;;9.70;5.25;;;;;;;27.28;95.75;100935.78;20973291;28;20404;-76
2023/10/16 13:35:47;;;;;;;13.68;5.75;;;;;;;27.18;98.09;100939.91;20931915;28;20514;-76
2023/10/16 13:46:13;;;;;;;11.90;5.75;;;;;;;26.91;100.00;100949.44;20958094;28;20056;-76
2023/10/16 13:56:35;;;;;;;12.15;6.80;;;;;;;26.83;100.00;100947.06;20969484;28;20044;-75
2023/10/16 14:07:00;;;;;;;14.40;6.63;;;;;;;26.78;100.00;100953.66;20969591;28;20071;-75
2023/10/16 14:17:24;;;;;;;13.98;6.60;;;;;;;26.62;100.00;100945.38;20952763;28;20110;-75
2023/10/16 14:27:49;;;;;;;13.93;5.97;;;;;;;26.47;100.00;100941.56;20967389;28;20056;-75
2023/10/16 14:38:11;;;;;;;18.05;6.85;;;;;;;26.26;100.00;100956.09;20965994;28;20054;-75
2023/10/16 14:48:37;;;;;;;16.50;7.43;;;;;;;25.93;100.00;100950.34;20953315;28;20051;-75
2023/10/16 14:59:00;;;;;;;16.65;7.85;;;;;;;25.88;100.00;100962.34;20949721;28;20386;-75
2023/10/16 15:09:25;;;;;;;25.15;8.45;;;;;;;25.59;100.00;100964.53;20884624;28;20041;-75
2023/10/16 15:19:47;;;;;;;17.10;7.85;;;;;;;25.37;100.00;100982.56;20981490;28;20060;-75
2023/10/16 15:30:13;;;;;;;16.40;8.18;;;;;;;25.18;100.00;100993.25;20981462;28;20040;-75
2023/10/16 15:40:35;;;;;;;17.13;8.35;;;;;;;25.01;100.00;100999.31;20921288;28;20049;-75
2023/10/16 15:50:59;;;;;;;20.50;9.38;;;;;;;24.81;100.00;100998.34;20898276;28;20049;-75
2023/10/16 16:01:25;;;;;;;16.40;8.93;;;;;;;24.61;100.00;101018.88;20957806;28;20067;-75
2023/10/16 16:11:49;;;;;;;17.58;9.07;;;;;;;24.49;100.00;101030.16;20963232;28;20646;-75
2023/10/16 16:22:11;;;;;;;16.70;8.60;;;;;;;24.26;100.00;101043.63;20942672;28;20124;-76
2023/10/16 16:32:36;;;;;;;17.52;8.85;;;;;;;24.07;100.00;101050.59;20963201;28;20106;-76
2023/10/16 16:42:59;;;;;;;16.48;8.85;;;;;;;23.97;100.00;101073.41;20975735;28;20047;-76
2023/10/16 16:53:23;;;;;;;18.65;8.90;;;;;;;23.82;100.00;101073.03;20975748;28;20464;-75
2023/10/16 17:03:46;;;;;;;16.77;8.80;;;;;;;23.69;100.00;101078.88;20974238;28;20131;-77
2023/10/16 17:14:10;;;;;;;17.05;8.48;;;;;;;23.60;100.00;101090.84;20971452;28;20109;-76
2023/10/16 17:24:33;;;;;;;19.90;8.63;;;;;;;23.49;100.00;101092.13;20917346;28;20591;-76
2023/10/16 17:34:59;;;;;;;18.55;8.68;;;;;;;23.27;100.00;101102.66;20909993;28;20045;-76
2023/10/16 17:45:22;;;;;;;17.73;9.73;;;;;;;23.10;100.00;101102.31;20959188;28;20370;-76
2023/10/16 17:55:47;;;;;;;15.85;9.05;;;;;;;23.00;100.00;101115.16;20904855;28;20381;-75
2023/10/16 18:06:13;;;;;;;21.90;12.73;;;;;;;22.83;100.00;101123.75;20896188;28;20051;-76
2023/10/16 18:16:39;;;;;;;18.02;10.48;;;;;;;22.59;100.00;101136.06;20893012;28;20056;-75
2023/10/16 18:27:03;;;;;;;19.02;9.75;;;;;;;22.42;100.00;101145.53;20909715;28;20130;-76
2023/10/16 18:37:27;;;;;;;18.42;10.27;;;;;;;22.19;100.00;101157.75;20943655;28;20495;-76
2023/10/16 18:47:51;;;;;;;17.75;9.73;;;;;;;22.19;100.00;101173.91;20892847;28;20049;-75
2023/10/16 18:58:16;;;;;;;17.27;9.82;;;;;;;22.21;100.00;101187.31;20958162;28;20060;-76
2023/10/16 19:08:40;;;;;;;22.25;10.00;;;;;;;22.14;100.00;101188.41;20949937;28;20052;-76
2023/10/16 19:19:04;;;;;;;16.73;9.30;;;;;;;22.02;100.00;101199.47;20949385;28;20460;-76
2023/10/16 19:29:28;;;;;;;17.20;9.38;;;;;;;21.97;100.00;101204.06;20936607;28;20059;-75
2023/10/16 19:39:52;;;;;;;18.83;9.52;;;;;;;21.96;100.00;101207.69;20949702;28;20098;-75
2023/10/16 19:50:14;;;;;;;18.65;9.70;;;;;;;21.72;100.00;101214.50;20964531;28;20443;-78
2023/10/16 20:00:40;;;;;;;19.52;10.95;;;;;;;21.66;100.00;101217.31;20965241;28;20291;-75
2023/10/16 20:11:03;;;;;;;16.88;9.57;;;;;;;21.48;100.00;101215.91;20965149;28;20042;-75
2023/10/16 20:21:29;;;;;;;18.75;10.60;;;;;;;21.26;100.00;101215.50;20963688;28;20048;-75
2023/10/16 20:31:52;;;;;;;17.10;10.68;;;;;;;21.05;100.00;101211.44;20977609;28;20555;-75
2023/10/16 20:42:16;;;;;;;20.30;10.18;;;;;;;20.97;100.00;101220.53;20949465;28;20044;-76
2023/10/16 20:52:38;;;;;;;20.80;10.57;;;;;;;21.02;100.00;101215.97;20976380;28;20063;-77
2023/10/16 21:03:04;;;;;;;24.05;11.80;;;;;;;21.04;100.00;101220.41;20972827;28;20048;-76
2023/10/16 21:13:27;;;;;;;21.23;11.30;;;;;;;20.97;100.00;101221.44;20959519;28;20051;-76
2023/10/16 21:23:51;;;;;;;17.60;11.20;;;;;;;20.79;100.00;101226.28;20877465;28;20511;-76
2023/10/16 21:34:14;;;;;;;19.55;10.65;;;;;;;20.79;100.00;101239.69;20957576;28;20133;-76
2023/10/16 21:44:40;;;;;;;15.30;10.32;;;;;;;20.79;100.00;101235.22;20965820;28;20072;-75
2023/10/16 21:55:05;;;;;;;17.67;10.70;;;;;;;20.80;100.00;101236.09;20971194;28;20145;-76
2023/10/16 22:05:29;;;;;;;17.92;9.98;;;;;;;20.78;100.00;101243.28;20956673;28;20106;-76
2023/10/16 22:15:52;;;;;;;16.52;10.32;;;;;;;20.68;100.00;101243.44;20967597;28;20734;-76
2023/10/16 22:26:17;;;;;;;20.77;11.35;;;;;;;20.63;100.00;101250.69;20954934;28;20040;-76
2023/10/16 22:36:39;;;;;;;16.65;10.52;;;;;;;20.47;100.00;101254.56;20967873;28;20140;-75
2023/10/16 22:47:04;;;;;;;15.13;10.07;;;;;;;20.44;100.00;101248.38;20967553;28;20049;-76
2023/10/16 22:57:27;;;;;;;21.10;10.70;;;;;;;20.37;100.00;101246.69;20966372;28;20063;-75
2023/10/16 23:07:52;;;;;;;16.95;10.00;;;;;;;20.26;100.00;101245.06;20939102;28;20041;-76
2023/10/16 23:18:18;;;;;;;21.48;10.75;;;;;;;20.22;100.00;101237.94;20964621;28;20095;-75
2023/10/16 23:28:43;;;;;;;18.50;10.82;;;;;;;20.19;100.00;101231.78;20956630;28;20076;-76
2023/10/16 23:39:14;;;;;;;17.00;10.68;;;;;;;20.05;100.00;101239.13;20975234;28;20139;-76
2023/10/16 23:49:45;;;;;;;17.17;11.32;;;;;;;19.99;100.00;101240.13;20968011;28;20540;-76
